Time;durP1;ratioP1;P1;durP2;ratioP2;P2;SDS_P1;SDS_P2;PMS_P1;PMS_P2;Temp;Humidity;BMP_temperature;BMP_pressure;BME280_temperature;BME280_humidity;BME280_pressure;Samples;Min_cycle;Max_cycle;Signal;HPM_P1;HPM_P2
2022/05/11 00:01:30;;;;;;;4.60;3.83;;;17.30;99.90;;;;;;5011429;28;20200;-78
2022/05/11 00:03:58;;;;;;;3.05;2.83;;;17.30;99.90;;;;;;5006363;28;20231;-78
2022/05/11 00:06:25;;;;;;;3.55;3.25;;;17.20;99.90;;;;;;5008849;28;20200;-78
2022/05/11 00:08:54;;;;;;;3.53;3.22;;;17.20;99.90;;;;;;5006464;28;20705;-78
2022/05/11 00:11:21;;;;;;;4.43;3.28;;;17.20;99.90;;;;;;5005922;28;20251;-78
2022/05/11 00:13:49;;;;;;;3.00;2.78;;;17.20;99.90;;;;;;5007052;28;20219;-78
2022/05/11 00:16:16;;;;;;;4.47;3.28;;;17.20;99.90;;;;;;5007688;28;20220;-78
2022/05/11 00:18:43;;;;;;;6.05;2.97;;;17.20;99.90;;;;;;5003971;28;20232;-78
2022/05/11 00:21:11;;;;;;;4.82;2.95;;;17.10;99.90;;;;;;5002819;28;20212;-78
2022/05/11 00:23:38;;;;;;;3.47;2.90;;;17.10;99.90;;;;;;5004857;28;20649;-78
2022/05/11 00:26:07;;;;;;;3.50;3.20;;;17.00;99.90;;;;;;5025989;28;20200;-78
2022/05/11 00:28:34;;;;;;;2.80;2.55;;;17.00;99.90;;;;;;5004614;28;20231;-78
2022/05/11 00:31:02;;;;;;;3.60;3.15;;;17.00;99.90;;;;;;5007771;28;20201;-78
2022/05/11 00:33:29;;;;;;;3.28;2.97;;;17.00;99.90;;;;;;5006800;28;20201;-79
2022/05/11 00:35:56;;;;;;;4.63;3.42;;;17.00;99.90;;;;;;5001505;28;20749;-77
2022/05/11 00:38:27;;;;;;;3.63;3.17;;;16.90;99.90;;;;;;5007949;28;20726;-78
2022/05/11 00:40:58;;;;;;;3.42;3.13;;;16.90;99.90;;;;;;5006905;28;20663;-78
2022/05/11 00:43:32;;;;;;;3.17;2.83;;;16.90;99.90;;;;;;5005212;28;20192;-79
2022/05/11 00:46:10;;;;;;;2.92;2.72;;;16.90;99.90;;;;;;5009036;28;20188;-78
2022/05/11 00:51:23;;;;;;;3.30;2.92;;;16.80;99.90;;;;;;5004808;28;20200;-78
2022/05/11 00:53:54;;;;;;;3.50;3.20;;;16.80;99.90;;;;;;5004366;28;20220;-78
2022/05/11 00:56:23;;;;;;;3.35;2.85;;;16.80;99.90;;;;;;5006185;28;20215;-79
2022/05/11 00:58:56;;;;;;;3.50;3.20;;;16.80;99.90;;;;;;5004348;28;20427;-78
2022/05/11 01:01:23;;;;;;;3.50;3.20;;;16.70;99.90;;;;;;5002933;28;20288;-78
2022/05/11 01:03:54;;;;;;;4.60;3.20;;;16.70;99.90;;;;;;5007059;28;20290;-78
2022/05/11 01:06:23;;;;;;;3.28;2.88;;;16.70;99.90;;;;;;5005090;28;20196;-77
2022/05/11 01:08:50;;;;;;;5.60;3.28;;;16.70;99.90;;;;;;5005722;28;20306;-78
2022/05/11 01:11:18;;;;;;;3.58;2.88;;;16.70;99.90;;;;;;5007804;28;20201;-78
2022/05/11 01:13:47;;;;;;;3.50;3.15;;;16.60;99.90;;;;;;4999579;28;20620;-78
2022/05/11 01:16:15;;;;;;;3.70;3.40;;;16.60;99.90;;;;;;5005107;28;20236;-78
2022/05/11 01:18:43;;;;;;;5.22;3.63;;;16.60;99.90;;;;;;5015480;28;20281;-79
2022/05/11 01:21:11;;;;;;;3.35;3.10;;;16.50;99.90;;;;;;5005504;28;20196;-78
2022/05/11 01:23:46;;;;;;;4.68;3.30;;;16.50;99.90;;;;;;5002557;28;20209;-78
2022/05/11 01:26:18;;;;;;;4.10;3.08;;;16.50;99.90;;;;;;5000483;28;20663;-78
2022/05/11 01:28:47;;;;;;;3.70;3.20;;;16.50;99.90;;;;;;5005224;28;20239;-78
2022/05/11 01:31:16;;;;;;;5.43;3.30;;;16.50;99.90;;;;;;5006913;28;20196;-77
2022/05/11 01:33:47;;;;;;;4.88;3.08;;;16.50;99.90;;;;;;5005342;28;20204;-77
2022/05/11 01:36:21;;;;;;;4.28;3.35;;;16.40;99.90;;;;;;5000095;28;20201;-77
2022/05/11 01:38:50;;;;;;;4.55;3.65;;;16.40;99.90;;;;;;5002463;28;20566;-78
2022/05/11 01:41:24;;;;;;;3.83;3.53;;;16.40;99.90;;;;;;4999060;28;20208;-77
2022/05/11 01:43:51;;;;;;;4.43;4.03;;;16.30;99.90;;;;;;5010362;28;20192;-78
2022/05/11 01:46:19;;;;;;;3.28;2.97;;;16.30;99.90;;;;;;5002394;28;20287;-78
2022/05/11 01:48:46;;;;;;;3.28;3.08;;;16.30;99.90;;;;;;5003181;28;20221;-78
2022/05/11 01:51:14;;;;;;;3.67;3.35;;;16.30;99.90;;;;;;5007403;28;20196;-77
2022/05/11 01:53:41;;;;;;;3.35;3.13;;;16.20;99.90;;;;;;5007604;28;20643;-77
2022/05/11 01:56:10;;;;;;;3.10;2.90;;;16.20;99.90;;;;;;5004995;28;20252;-78
2022/05/11 01:58:38;;;;;;;3.70;3.40;;;16.20;99.90;;;;;;5008690;28;20668;-75
2022/05/11 02:01:06;;;;;;;3.50;3.20;;;16.20;99.90;;;;;;5007401;28;20820;-76
2022/05/11 02:03:33;;;;;;;4.63;3.72;;;16.20;99.90;;;;;;5007413;28;20235;-75
2022/05/11 02:08:46;;;;;;;4.07;3.78;;;16.10;99.90;;;;;;5006953;28;20273;-76
2022/05/11 02:11:14;;;;;;;4.05;3.25;;;16.10;99.90;;;;;;5009913;28;20576;-76
2022/05/11 02:13:45;;;;;;;3.80;3.42;;;16.00;99.90;;;;;;5020394;28;20674;-75
2022/05/11 02:16:12;;;;;;;3.65;3.20;;;16.00;99.90;;;;;;5005874;28;20212;-75
2022/05/11 02:18:40;;;;;;;3.63;3.33;;;16.00;99.90;;;;;;5010185;28;20223;-76
2022/05/11 02:21:08;;;;;;;3.78;3.47;;;16.00;99.90;;;;;;5002802;28;20611;-75
2022/05/11 02:23:37;;;;;;;4.20;3.35;;;16.00;99.90;;;;;;5007161;28;20196;-74
2022/05/11 02:26:05;;;;;;;4.28;3.83;;;15.90;99.90;;;;;;5008215;28;20271;-76
2022/05/11 02:28:32;;;;;;;3.40;3.10;;;15.90;99.90;;;;;;5010215;28;20235;-75
2022/05/11 02:31:00;;;;;;;4.57;3.75;;;15.90;99.90;;;;;;5007477;28;20220;-77
2022/05/11 02:33:28;;;;;;;3.63;3.00;;;15.90;99.90;;;;;;5005768;28;20204;-76
2022/05/11 02:35:55;;;;;;;3.88;3.50;;;15.80;99.90;;;;;;5009461;28;20280;-75
2022/05/11 02:38:28;;;;;;;4.65;3.40;;;15.80;99.90;;;;;;5008392;28;20220;-76
2022/05/11 02:40:55;;;;;;;3.65;3.33;;;15.80;99.90;;;;;;5008398;28;20734;-77
2022/05/11 02:43:23;;;;;;;3.60;3.22;;;15.80;99.90;;;;;;5008623;28;20220;-78
2022/05/11 02:45:50;;;;;;;3.05;2.85;;;15.80;99.90;;;;;;5008603;28;20236;-77
2022/05/11 02:48:21;;;;;;;3.70;3.40;;;15.80;99.90;;;;;;5006086;28;20216;-77
2022/05/11 02:50:51;;;;;;;3.30;3.00;;;15.80;99.90;;;;;;5004851;28;20224;-77
2022/05/11 02:53:19;;;;;;;4.32;3.67;;;15.80;99.90;;;;;;5007731;28;20208;-77
2022/05/11 02:55:48;;;;;;;3.58;3.28;;;15.80;99.90;;;;;;5004258;28;20286;-77
2022/05/11 02:58:17;;;;;;;3.65;3.25;;;15.80;99.90;;;;;;5008146;28;20805;-78
2022/05/11 03:00:46;;;;;;;3.40;3.10;;;15.70;99.90;;;;;;5004990;28;20258;-78
2022/05/11 03:03:15;;;;;;;4.10;3.78;;;15.70;99.90;;;;;;5009585;28;20198;-76
2022/05/11 03:05:44;;;;;;;3.47;3.17;;;15.70;99.90;;;;;;5023012;28;20219;-78
2022/05/11 03:08:12;;;;;;;3.72;3.33;;;15.60;99.90;;;;;;5013957;28;20243;-78
2022/05/11 03:10:40;;;;;;;4.30;3.90;;;15.60;99.90;;;;;;5009979;28;20705;-78
2022/05/11 03:13:08;;;;;;;3.72;3.20;;;15.50;99.90;;;;;;5003616;28;20204;-78
2022/05/11 03:15:36;;;;;;;3.38;3.17;;;15.50;99.90;;;;;;5005279;28;20216;-78
2022/05/11 03:18:04;;;;;;;3.92;3.58;;;15.40;99.90;;;;;;5009102;28;20304;-78
2022/05/11 03:20:31;;;;;;;3.80;3.22;;;15.40;99.90;;;;;;5006726;28;20223;-78
2022/05/11 03:23:00;;;;;;;3.70;3.40;;;15.40;99.90;;;;;;5006594;28;20202;-77
2022/05/11 03:25:27;;;;;;;3.30;2.95;;;15.40;99.90;;;;;;5010728;28;20295;-78
2022/05/11 03:27:54;;;;;;;4.10;3.40;;;15.40;99.90;;;;;;5006683;28;20709;-78
2022/05/11 03:30:22;;;;;;;4.05;3.63;;;15.40;99.90;;;;;;5009640;28;20639;-78
2022/05/11 03:35:33;;;;;;;3.88;3.50;;;15.30;99.90;;;;;;5008447;28;20229;-78
2022/05/11 03:38:01;;;;;;;3.72;3.28;;;15.30;99.90;;;;;;5009469;28;20258;-78
2022/05/11 03:40:28;;;;;;;4.40;3.80;;;15.30;99.90;;;;;;5006090;28;20407;-76
2022/05/11 03:42:55;;;;;;;3.83;3.38;;;15.20;99.90;;;;;;5003077;28;20248;-78
2022/05/11 03:45:25;;;;;;;4.32;3.90;;;15.20;99.90;;;;;;5010962;28;20216;-78
2022/05/11 03:47:52;;;;;;;4.88;3.88;;;15.10;99.90;;;;;;5008055;28;20235;-78
2022/05/11 03:50:22;;;;;;;4.22;3.85;;;15.10;99.90;;;;;;5012043;28;20222;-78
2022/05/11 03:52:49;;;;;;;5.60;3.50;;;15.10;99.90;;;;;;5008763;28;20212;-78
2022/05/11 03:55:18;;;;;;;4.68;3.53;;;15.10;99.90;;;;;;5007039;28;20224;-78
2022/05/11 03:57:45;;;;;;;4.78;3.75;;;15.00;99.90;;;;;;5004872;28;20282;-78
2022/05/11 04:00:15;;;;;;;4.28;3.38;;;15.00;99.90;;;;;;5027812;28;20216;-78
2022/05/11 04:02:43;;;;;;;3.90;3.60;;;15.00;99.90;;;;;;5010596;28;20212;-78
2022/05/11 04:05:11;;;;;;;3.92;3.47;;;15.00;99.90;;;;;;5008296;28;20223;-78
2022/05/11 04:07:38;;;;;;;3.85;3.40;;;15.00;99.90;;;;;;5005132;28;20228;-76
2022/05/11 04:10:07;;;;;;;5.13;3.60;;;15.00;99.90;;;;;;5011247;28;20216;-78
2022/05/11 04:12:35;;;;;;;4.18;3.75;;;15.10;99.90;;;;;;5007140;28;20725;-78
2022/05/11 04:15:04;;;;;;;3.58;3.28;;;15.00;99.90;;;;;;5008005;28;20220;-78
2022/05/11 04:17:31;;;;;;;3.85;3.08;;;15.00;99.90;;;;;;5008015;28;20772;-78
2022/05/11 04:19:58;;;;;;;5.50;3.53;;;15.00;99.90;;;;;;5006903;28;20706;-78
2022/05/11 04:22:25;;;;;;;5.72;3.30;;;15.00;99.90;;;;;;5008566;28;20200;-78
2022/05/11 04:24:52;;;;;;;4.05;3.75;;;15.00;99.90;;;;;;5007212;28;20216;-78
2022/05/11 04:27:19;;;;;;;4.00;3.60;;;15.00;99.90;;;;;;5011153;28;20199;-78
2022/05/11 04:29:48;;;;;;;4.45;4.05;;;15.10;99.90;;;;;;5020813;23;20220;-73
2022/05/11 04:32:15;;;;;;;4.18;3.88;;;15.10;99.90;;;;;;4998600;28;20204;-73
2022/05/11 04:34:43;;;;;;;3.55;3.25;;;15.00;99.90;;;;;;5004339;28;20312;-73
2022/05/11 04:37:12;;;;;;;4.15;3.75;;;15.00;99.90;;;;;;5010761;28;20220;-72
2022/05/11 04:39:39;;;;;;;4.18;3.75;;;15.10;99.90;;;;;;5001428;28;20317;-73
2022/05/11 04:42:07;;;;;;;4.53;3.70;;;15.10;99.90;;;;;;5005054;28;20196;-73
2022/05/11 04:44:34;;;;;;;4.28;3.88;;;15.20;99.90;;;;;;5003018;28;20760;-73
2022/05/11 04:47:08;;;;;;;3.88;3.58;;;15.40;99.90;;;;;;5005820;28;20659;-73
2022/05/11 04:49:36;;;;;;;3.92;3.53;;;15.50;99.90;;;;;;5000058;28;20224;-73
2022/05/11 04:52:07;;;;;;;5.75;4.07;;;15.60;99.90;;;;;;4980087;28;20205;-73
2022/05/11 04:54:37;;;;;;;5.93;4.55;;;15.70;99.90;;;;;;4984867;28;20308;-73
2022/05/11 04:57:05;;;;;;;4.85;4.22;;;15.90;99.90;;;;;;4982892;28;20518;-73
2022/05/11 04:59:33;;;;;;;4.95;4.45;;;16.00;99.90;;;;;;4984275;28;20225;-73
2022/05/11 05:02:00;;;;;;;5.30;4.80;;;16.20;99.90;;;;;;4981364;28;20652;-73
2022/05/11 05:04:29;;;;;;;4.95;4.50;;;16.30;99.90;;;;;;4985930;28;20232;-73
2022/05/11 05:06:57;;;;;;;7.40;4.47;;;16.50;99.90;;;;;;4981907;28;20648;-73
2022/05/11 05:09:24;;;;;;;4.68;4.28;;;16.50;99.90;;;;;;4981709;28;20275;-73
2022/05/11 05:11:52;;;;;;;4.55;4.10;;;16.70;99.90;;;;;;4985894;28;20210;-73
2022/05/11 05:14:19;;;;;;;4.55;4.13;;;16.80;99.90;;;;;;4982320;28;20255;-73
2022/05/11 05:16:46;;;;;;;15.70;4.57;;;16.90;99.90;;;;;;4979320;28;20440;-72
2022/05/11 05:19:14;;;;;;;6.75;4.72;;;17.10;99.90;;;;;;4983427;28;20628;-73
2022/05/11 05:21:42;;;;;;;4.10;3.60;;;17.20;99.90;;;;;;4983441;28;20296;-73
2022/05/11 05:24:09;;;;;;;5.45;4.20;;;17.40;99.90;;;;;;4977906;28;20585;-73
2022/05/11 05:26:36;;;;;;;6.03;4.25;;;17.60;99.90;;;;;;4983248;28;20256;-73
2022/05/11 05:31:48;;;;;;;6.65;4.13;;;17.60;99.90;;;;;;5000484;28;20235;-73
2022/05/11 05:34:16;;;;;;;5.35;4.85;;;17.60;99.90;;;;;;4997460;28;20635;-72
2022/05/11 05:36:44;;;;;;;8.75;4.43;;;17.60;99.90;;;;;;5002601;28;20256;-73
2022/05/11 05:39:11;;;;;;;6.53;4.88;;;17.80;99.90;;;;;;5003557;28;20217;-73
2022/05/11 05:41:38;;;;;;;4.50;4.10;;;17.90;99.90;;;;;;5007613;28;20718;-73
2022/05/11 05:44:06;;;;;;;7.53;4.80;;;18.00;99.90;;;;;;5008054;28;20258;-73
2022/05/11 05:46:34;;;;;;;5.68;4.93;;;18.00;99.90;;;;;;5008990;28;20216;-73
2022/05/11 05:49:01;;;;;;;6.38;4.53;;;18.00;99.90;;;;;;5008737;28;22189;-73
2022/05/11 05:51:28;;;;;;;5.00;4.57;;;18.10;99.90;;;;;;5008757;28;20223;-73
2022/05/11 05:53:57;;;;;;;5.35;4.10;;;18.00;99.90;;;;;;5005469;28;20202;-75
2022/05/11 05:56:24;;;;;;;4.80;4.40;;;18.10;99.90;;;;;;5002832;28;20301;-74
2022/05/11 05:58:55;;;;;;;5.18;4.55;;;18.20;99.90;;;;;;5001183;28;20228;-74
2022/05/11 06:01:22;;;;;;;8.18;4.72;;;18.30;99.90;;;;;;4990377;28;20217;-74
2022/05/11 06:03:49;;;;;;;6.95;4.72;;;18.40;99.90;;;;;;4977735;28;20271;-74
2022/05/11 06:06:18;;;;;;;6.40;4.57;;;18.50;99.90;;;;;;4980362;28;20267;-74
2022/05/11 06:08:45;;;;;;;5.20;4.22;;;18.60;99.90;;;;;;4984396;28;20819;-74
2022/05/11 06:11:13;;;;;;;4.90;4.35;;;18.70;99.90;;;;;;4983585;28;20279;-74
2022/05/11 06:13:41;;;;;;;5.07;4.57;;;18.80;99.90;;;;;;4981560;28;20569;-73
2022/05/11 06:16:14;;;;;;;4.80;4.38;;;18.90;99.90;;;;;;4981240;28;20779;-75
2022/05/11 06:18:42;;;;;;;5.00;4.50;;;18.90;99.90;;;;;;4976985;28;20248;-73
2022/05/11 06:21:09;;;;;;;5.95;4.55;;;19.00;99.90;;;;;;4978281;28;20315;-73
2022/05/11 06:23:36;;;;;;;7.10;4.95;;;19.00;99.90;;;;;;4980101;28;20665;-75
2022/05/11 06:26:03;;;;;;;7.72;4.60;;;19.00;99.90;;;;;;4977238;28;20212;-74
2022/05/11 06:28:32;;;;;;;4.88;4.40;;;19.00;99.90;;;;;;4982520;28;20228;-74
2022/05/11 06:30:59;;;;;;;6.75;4.63;;;19.10;99.90;;;;;;4979147;28;20279;-73
2022/05/11 06:33:26;;;;;;;6.30;5.00;;;19.20;99.90;;;;;;4981728;28;20299;-74
2022/05/11 06:35:53;;;;;;;5.25;4.35;;;19.30;99.90;;;;;;4978256;28;20520;-73
2022/05/11 06:38:20;;;;;;;5.55;5.05;;;19.50;99.90;;;;;;4980008;28;20703;-74
2022/05/11 06:40:47;;;;;;;6.13;4.53;;;19.60;99.90;;;;;;4981260;28;20220;-73
2022/05/11 06:43:15;;;;;;;6.22;4.60;;;19.70;99.90;;;;;;4975967;28;20862;-73
2022/05/11 06:45:44;;;;;;;5.57;4.68;;;19.80;99.90;;;;;;4978770;28;20224;-73
2022/05/11 06:48:12;;;;;;;5.53;4.60;;;19.90;99.90;;;;;;4978890;28;20228;-74
2022/05/11 06:50:39;;;;;;;5.25;4.43;;;19.80;99.90;;;;;;4977674;28;20295;-74
2022/05/11 06:53:10;;;;;;;5.25;4.40;;;20.00;99.90;;;;;;4978313;28;20193;-74
2022/05/11 07:01:10;;;;;;;5.13;4.57;;;20.20;99.90;;;;;;4987823;28;20627;-73
2022/05/11 07:03:37;;;;;;;6.40;4.80;;;20.30;99.90;;;;;;5001847;28;20230;-73
2022/05/11 07:06:06;;;;;;;6.15;4.82;;;20.40;99.90;;;;;;5004246;28;20588;-74
2022/05/11 07:08:38;;;;;;;5.07;4.35;;;20.40;99.90;;;;;;5003632;28;20359;-74
2022/05/11 07:13:50;;;;;;;4.68;4.20;;;20.40;99.90;;;;;;5001767;28;20211;-73
2022/05/11 07:16:18;;;;;;;8.13;4.80;;;20.50;99.90;;;;;;5001800;28;20721;-72
2022/05/11 07:18:46;;;;;;;6.57;4.30;;;20.80;99.90;;;;;;5000086;28;20220;-73
2022/05/11 07:21:13;;;;;;;5.32;4.28;;;20.80;99.90;;;;;;5001038;28;20220;-73
2022/05/11 07:23:40;;;;;;;5.72;4.35;;;20.80;99.90;;;;;;5001684;28;20680;-73
2022/05/11 07:26:08;;;;;;;4.38;3.97;;;20.90;99.90;;;;;;4994716;28;20225;-72
2022/05/11 07:28:36;;;;;;;5.22;4.35;;;21.00;99.90;;;;;;4998591;28;20224;-73
2022/05/11 07:31:05;;;;;;;5.70;4.43;;;21.10;99.90;;;;;;4998070;28;20789;-73
2022/05/11 07:33:34;;;;;;;5.10;4.57;;;21.10;99.90;;;;;;4998633;28;20254;-73
2022/05/11 07:36:02;;;;;;;5.50;4.57;;;21.10;99.90;;;;;;5000529;28;20231;-73
2022/05/11 07:38:29;;;;;;;6.35;4.70;;;21.20;99.90;;;;;;5001645;28;20600;-73
2022/05/11 07:40:56;;;;;;;6.05;4.40;;;21.30;99.90;;;;;;5000581;28;20297;-73
2022/05/11 07:43:23;;;;;;;5.72;4.43;;;21.40;99.90;;;;;;4999834;28;20204;-72
2022/05/11 07:45:50;;;;;;;6.78;4.72;;;21.60;99.90;;;;;;5001691;28;20633;-72
2022/05/11 07:48:20;;;;;;;7.90;4.97;;;21.50;99.90;;;;;;4999397;28;20602;-73
2022/05/11 07:50:49;;;;;;;6.57;4.65;;;21.50;99.90;;;;;;5002038;28;20204;-73
2022/05/11 07:53:17;;;;;;;9.15;4.88;;;21.50;99.90;;;;;;5004827;28;20211;-73
2022/05/11 07:55:44;;;;;;;8.13;4.95;;;21.50;99.90;;;;;;5003813;28;20200;-73
2022/05/11 08:00:56;;;;;;;5.70;4.20;;;21.90;99.90;;;;;;5000605;28;20800;-73
2022/05/11 08:03:23;;;;;;;5.75;4.68;;;22.30;99.90;;;;;;5009334;28;20208;-73
2022/05/11 08:05:52;;;;;;;6.55;4.30;;;22.30;99.90;;;;;;5001526;28;20195;-73
2022/05/11 08:08:19;;;;;;;4.90;4.40;;;22.50;99.90;;;;;;4997735;28;20693;-73
2022/05/11 08:10:47;;;;;;;5.28;4.50;;;22.50;99.90;;;;;;4995849;28;20199;-74
2022/05/11 08:13:16;;;;;;;4.70;4.18;;;22.50;99.90;;;;;;5001523;28;20199;-74
2022/05/11 08:15:47;;;;;;;8.07;4.53;;;22.40;99.90;;;;;;5000245;28;20279;-73
2022/05/11 08:18:15;;;;;;;5.47;4.38;;;22.50;99.90;;;;;;5000631;28;20738;-73
2022/05/11 08:20:44;;;;;;;6.00;4.30;;;22.60;99.90;;;;;;5002369;28;20192;-73
2022/05/11 08:23:13;;;;;;;5.57;4.38;;;22.70;99.90;;;;;;5002709;28;20262;-74
2022/05/11 08:25:41;;;;;;;6.00;4.57;;;22.80;99.90;;;;;;5001618;28;20824;-73
2022/05/11 08:28:14;;;;;;;8.98;4.10;;;22.90;99.90;;;;;;5002792;28;20463;-73
2022/05/11 08:33:27;;;;;;;6.40;5.10;;;23.00;99.90;;;;;;4996890;28;20215;-73
2022/05/11 08:35:58;;;;;;;5.97;4.75;;;23.10;99.90;;;;;;4991079;28;20197;-73
2022/05/11 08:38:29;;;;;;;5.95;4.35;;;23.30;99.90;;;;;;4995150;28;20231;-73
2022/05/11 08:41:00;;;;;;;7.30;4.80;;;23.40;99.90;;;;;;4998394;28;20212;-73
2022/05/11 08:43:31;;;;;;;9.70;4.70;;;23.50;99.90;;;;;;5000686;28;20742;-73
2022/05/11 08:46:18;;;;;;;5.47;4.75;;;23.60;99.90;;;;;;4998424;28;20327;-74
2022/05/11 08:48:56;;;;;;;7.47;4.80;;;23.70;99.90;;;;;;4991140;28;20758;-75
2022/05/11 08:51:30;;;;;;;6.15;4.40;;;23.60;99.90;;;;;;4994066;28;20255;-75
2022/05/11 08:54:08;;;;;;;5.10;4.60;;;23.80;99.90;;;;;;4996093;28;20218;-74
2022/05/11 08:56:36;;;;;;;5.25;3.95;;;23.90;99.90;;;;;;4983113;28;20307;-74
2022/05/11 08:59:03;;;;;;;4.75;3.90;;;23.80;99.90;;;;;;4977214;28;20267;-74
2022/05/11 09:01:34;;;;;;;7.15;4.45;;;23.90;99.90;;;;;;4979732;28;20220;-75
2022/05/11 09:04:07;;;;;;;5.82;4.55;;;24.00;99.90;;;;;;4994743;28;20303;-74
2022/05/11 09:06:37;;;;;;;5.72;4.32;;;23.90;99.90;;;;;;4993794;28;20217;-74
2022/05/11 09:09:05;;;;;;;5.15;4.00;;;24.00;99.90;;;;;;5000365;28;20224;-75
2022/05/11 09:11:36;;;;;;;5.38;4.70;;;24.10;99.90;;;;;;4991115;28;20236;-74
2022/05/11 09:14:04;;;;;;;6.57;4.38;;;24.10;99.90;;;;;;4994277;28;20270;-75
2022/05/11 09:16:39;;;;;;;5.78;3.75;;;24.20;99.90;;;;;;4996375;28;20223;-72
2022/05/11 09:19:22;;;;;;;4.80;4.22;;;24.20;99.90;;;;;;4989501;28;20255;-72
2022/05/11 09:21:52;;;;;;;4.45;3.95;;;24.40;99.90;;;;;;4996835;28;22790;-72
2022/05/11 09:24:30;;;;;;;5.72;4.25;;;24.70;99.90;;;;;;4995559;28;20212;-72
2022/05/11 09:27:09;;;;;;;6.47;3.90;;;25.10;99.90;;;;;;4989001;28;20220;-73
2022/05/11 09:29:40;;;;;;;6.25;4.05;;;25.20;99.90;;;;;;4996357;28;20255;-74
2022/05/11 09:32:26;;;;;;;6.13;4.57;;;25.10;99.90;;;;;;4978883;28;20240;-74
2022/05/11 09:34:54;;;;;;;4.43;4.00;;;24.90;99.90;;;;;;4973443;28;20604;-74
2022/05/11 09:37:34;;;;;;;5.55;4.07;;;24.70;99.90;;;;;;4989019;28;20220;-74
2022/05/11 09:40:10;;;;;;;5.60;3.92;;;24.80;99.90;;;;;;5000676;28;20251;-74
2022/05/11 09:42:50;;;;;;;6.82;4.05;;;25.10;99.90;;;;;;4999518;28;20714;-74
2022/05/11 09:45:35;;;;;;;4.75;3.95;;;25.20;99.90;;;;;;4998038;28;20232;-74
2022/05/11 09:48:08;;;;;;;4.72;4.00;;;25.20;99.90;;;;;;5000289;28;20220;-74
2022/05/11 09:50:35;;;;;;;4.93;3.88;;;25.20;99.90;;;;;;4992678;28;20663;-74
2022/05/11 09:53:23;;;;;;;5.50;3.72;;;25.40;99.90;;;;;;4997865;28;20290;-74
2022/05/11 09:55:53;;;;;;;4.82;3.72;;;25.40;99.90;;;;;;4993116;28;20193;-74
2022/05/11 09:58:32;;;;;;;9.43;3.88;;;25.30;99.90;;;;;;4999540;28;20794;-73
2022/05/11 10:01:12;;;;;;;6.78;3.70;;;25.40;99.90;;;;;;5003080;28;20300;-73
2022/05/11 10:03:45;;;;;;;7.25;4.22;;;25.40;99.90;;;;;;5006849;28;20759;-74
2022/05/11 10:06:13;;;;;;;5.35;3.60;;;25.40;99.90;;;;;;5002985;28;20192;-74
2022/05/11 10:08:44;;;;;;;5.03;3.50;;;25.50;99.90;;;;;;5000127;28;20220;-73
2022/05/11 10:11:18;;;;;;;5.18;3.78;;;25.60;99.90;;;;;;4995725;28;20200;-74
2022/05/11 10:13:52;;;;;;;4.85;4.15;;;25.70;99.90;;;;;;5001820;28;20205;-74
2022/05/11 10:22:10;;;;;;;5.82;4.63;;;25.80;99.90;;;;;;4999453;28;20235;-74
2022/05/11 10:24:54;;;;;;;4.50;4.10;;;25.80;99.90;;;;;;4999935;28;20278;-74
2022/05/11 10:27:30;;;;;;;8.55;3.63;;;25.80;99.90;;;;;;4999574;28;20217;-73
2022/05/11 10:30:08;;;;;;;7.40;4.10;;;25.90;99.90;;;;;;5018953;23;20731;-75
2022/05/11 10:32:44;;;;;;;5.53;3.55;;;26.00;99.90;;;;;;4981823;28;20231;-75
2022/05/11 10:35:16;;;;;;;6.13;4.47;;;26.20;99.90;;;;;;4981110;28;21786;-75
2022/05/11 10:38:07;;;;;;;6.35;4.68;;;26.40;99.90;;;;;;4980562;28;20251;-76
2022/05/11 10:40:50;;;;;;;5.30;4.28;;;26.30;99.90;;;;;;4990431;28;20488;-75
2022/05/11 10:43:33;;;;;;;6.50;4.35;;;26.20;99.90;;;;;;4978344;28;20644;-74
2022/05/11 10:46:07;;;;;;;5.68;4.30;;;26.20;99.90;;;;;;4977031;28;20610;-75
2022/05/11 10:48:46;;;;;;;5.07;3.92;;;26.20;99.90;;;;;;4975952;28;20217;-74
2022/05/11 10:51:20;;;;;;;4.88;4.30;;;26.30;99.90;;;;;;4977175;28;20304;-76
2022/05/11 10:53:54;;;;;;;6.30;4.25;;;26.40;99.90;;;;;;4975029;28;20216;-75
2022/05/11 10:56:30;;;;;;;3.95;3.55;;;26.40;99.90;;;;;;4973856;28;20659;-75
2022/05/11 10:59:40;;;;;;;5.60;3.90;;;26.50;99.90;;;;;;4979542;28;20255;-75
2022/05/11 11:02:36;;;;;;;5.60;4.03;;;26.50;99.90;;;;;;4972101;28;20659;-77
2022/05/11 11:05:11;;;;;;;6.95;4.57;;;26.40;99.90;;;;;;4989385;28;20604;-78
2022/05/11 11:07:46;;;;;;;5.18;4.22;;;26.50;99.90;;;;;;4998326;28;20568;-78
2022/05/11 11:10:30;;;;;;;6.18;4.00;;;26.50;99.90;;;;;;5010915;28;20251;-77
2022/05/11 11:13:34;;;;;;;6.05;4.22;;;26.50;99.90;;;;;;4995934;28;20192;-76
2022/05/11 11:16:03;;;;;;;5.10;4.35;;;26.40;99.90;;;;;;4996352;28;20923;-75
2022/05/11 11:18:32;;;;;;;6.28;4.65;;;26.40;99.90;;;;;;5000456;28;20307;-76
2022/05/11 11:21:03;;;;;;;5.45;4.30;;;26.50;99.90;;;;;;4996588;28;20251;-77
2022/05/11 11:23:35;;;;;;;9.55;5.10;;;26.60;99.90;;;;;;4994051;28;20236;-76
2022/05/11 11:26:06;;;;;;;5.07;4.05;;;26.60;99.90;;;;;;5001769;28;20200;-77
2022/05/11 11:28:54;;;;;;;7.22;4.32;;;26.80;99.90;;;;;;4995134;28;20611;-76
2022/05/11 11:31:23;;;;;;;5.95;4.63;;;27.10;99.90;;;;;;4995249;28;20607;-75
2022/05/11 11:34:11;;;;;;;6.20;4.80;;;27.40;99.90;;;;;;4998338;28;20355;-76
2022/05/11 11:36:42;;;;;;;6.82;4.38;;;27.60;99.90;;;;;;4997087;28;20660;-78
2022/05/11 11:39:11;;;;;;;4.78;4.22;;;27.70;99.90;;;;;;4988878;28;20324;-77
2022/05/11 11:42:04;;;;;;;5.80;3.35;;;27.70;99.90;;;;;;4979221;28;20201;-79
2022/05/11 11:44:38;;;;;;;4.28;3.75;;;27.90;99.90;;;;;;4965188;28;20552;-79
2022/05/11 11:47:42;;;;;;;4.50;4.00;;;28.30;99.90;;;;;;4976029;28;20279;-77
2022/05/11 11:50:30;;;;;;;5.38;3.63;;;28.60;99.90;;;;;;4975779;28;20220;-78
2022/05/11 11:53:10;;;;;;;5.57;3.92;;;28.90;99.90;;;;;;4973029;28;20638;-78
2022/05/11 11:55:37;;;;;;;3.70;3.40;;;29.00;99.90;;;;;;4980260;28;20208;-78
2022/05/11 11:58:15;;;;;;;4.32;3.83;;;28.80;99.90;;;;;;4972844;28;20272;-76
2022/05/11 12:01:11;;;;;;;5.20;3.65;;;28.60;99.90;;;;;;4974526;28;20221;-77
2022/05/11 12:03:41;;;;;;;6.15;3.97;;;28.40;99.90;;;;;;4946692;28;20220;-78
2022/05/11 12:17:28;;;;;;;5.38;3.67;;;27.90;99.90;;;;;;4976816;28;20836;-78
2022/05/11 12:20:01;;;;;;;4.93;3.80;;;27.90;99.90;;;;;;4971962;28;20312;-78
2022/05/11 12:22:31;;;;;;;5.82;4.57;;;27.90;99.90;;;;;;4971607;28;20220;-76
2022/05/11 12:25:03;;;;;;;6.10;4.63;;;27.90;99.90;;;;;;4975269;28;20223;-77
2022/05/11 12:27:34;;;;;;;5.85;4.10;;;27.80;99.90;;;;;;4976860;28;20311;-77
2022/05/11 12:30:04;;;;;;;4.30;3.90;;;27.80;99.90;;;;;;4982783;28;20302;-78
2022/05/11 12:32:33;;;;;;;4.90;4.13;;;27.80;99.90;;;;;;4979780;28;20204;-78
2022/05/11 12:35:10;;;;;;;6.07;4.45;;;27.90;99.90;;;;;;4980090;28;20225;-79
2022/05/11 12:37:39;;;;;;;4.13;3.70;;;27.90;99.90;;;;;;4977020;28;20201;-78
2022/05/11 12:40:13;;;;;;;4.90;4.40;;;27.90;99.90;;;;;;4978328;28;20224;-76
2022/05/11 12:42:45;;;;;;;5.20;4.38;;;28.00;99.90;;;;;;4977122;28;20197;-78
2022/05/11 12:45:16;;;;;;;8.30;4.65;;;28.00;99.90;;;;;;4976951;28;20224;-78
2022/05/11 12:47:47;;;;;;;6.28;4.40;;;28.00;99.90;;;;;;4977875;28;20684;-77
2022/05/11 12:50:19;;;;;;;7.00;4.43;;;27.90;99.90;;;;;;4980015;28;20634;-77
2022/05/11 12:52:46;;;;;;;10.55;5.18;;;28.10;99.90;;;;;;4980063;28;20204;-77
2022/05/11 12:55:14;;;;;;;5.25;4.28;;;27.80;99.90;;;;;;4974313;28;20742;-77
2022/05/11 12:57:44;;;;;;;6.60;3.88;;;27.70;99.90;;;;;;4977786;28;20271;-78
2022/05/11 13:00:18;;;;;;;6.38;4.00;;;27.70;99.90;;;;;;4976199;28;20503;-77
2022/05/11 13:02:47;;;;;;;5.20;4.10;;;27.80;99.90;;;;;;4974263;28;20210;-77
2022/05/11 13:05:18;;;;;;;6.90;4.43;;;27.90;99.90;;;;;;4972573;28;20300;-77
2022/05/11 13:07:51;;;;;;;6.15;4.10;;;28.00;99.90;;;;;;4969031;28;20260;-77
2022/05/11 13:10:23;;;;;;;7.68;4.78;;;27.90;99.90;;;;;;4990979;28;20627;-78
2022/05/11 13:12:55;;;;;;;6.30;4.90;;;27.80;99.80;;;;;;4992143;28;20200;-77
2022/05/11 13:15:34;;;;;;;9.43;4.45;;;27.60;99.90;;;;;;4996404;28;20927;-78
2022/05/11 13:18:02;;;;;;;5.22;3.92;;;27.60;99.90;;;;;;4993160;28;20831;-78
2022/05/11 13:20:36;;;;;;;9.98;4.53;;;27.70;99.90;;;;;;4994190;28;20605;-77
2022/05/11 13:23:06;;;;;;;14.65;5.15;;;27.60;99.90;;;;;;4996927;28;20207;-78
2022/05/11 13:25:47;;;;;;;10.13;4.68;;;27.40;99.70;;;;;;4992626;28;20232;-78
2022/05/11 13:28:21;;;;;;;7.25;4.28;;;27.40;99.90;;;;;;4993801;28;20200;-77
2022/05/11 13:30:49;;;;;;;7.20;4.30;;;27.40;99.80;;;;;;4996697;28;20593;-76
2022/05/11 13:33:42;;;;;;;6.68;4.10;;;27.50;99.90;;;;;;4998117;28;20207;-75
2022/05/11 13:36:21;;;;;;;6.22;4.13;;;27.70;99.70;;;;;;4994679;28;20220;-77
2022/05/11 13:38:59;;;;;;;7.95;4.47;;;27.90;99.90;;;;;;4993518;28;20876;-77
2022/05/11 13:41:31;;;;;;;5.57;4.85;;;28.00;99.90;;;;;;4999165;28;20762;-75
2022/05/11 13:44:03;;;;;;;6.82;4.82;;;27.90;99.80;;;;;;4996463;28;22017;-76
2022/05/11 13:48:11;;;;;;;5.40;4.57;;;27.80;99.90;;;;;;4995572;28;20721;-77